createdAt,value
2018-12-03T00:01:28.645Z,75.30
2018-12-03T00:04:00.313Z,79.60
2018-12-03T00:06:28.813Z,85.80
2018-12-03T00:08:57.505Z,86.60
2018-12-03T00:11:26.388Z,90.40
2018-12-03T00:13:54.792Z,91.70
2018-12-03T00:16:24.038Z,91.60
2018-12-03T00:18:53.826Z,92.40
2018-12-03T00:21:22.659Z,90.60
2018-12-03T00:23:51.862Z,92.10
2018-12-03T00:26:20.698Z,92.00
2018-12-03T00:28:49.329Z,91.10
2018-12-03T00:31:17.833Z,90.30
2018-12-03T00:33:46.663Z,92.00
2018-12-03T00:36:15.141Z,92.50
2018-12-03T00:38:43.616Z,92.40
2018-12-03T00:41:12.321Z,92.40
2018-12-03T00:43:40.847Z,92.70
2018-12-03T00:46:09.480Z,92.70
2018-12-03T00:48:38.163Z,93.50
2018-12-03T00:51:07.257Z,93.50
2018-12-03T00:53:35.957Z,92.00
2018-12-03T00:56:04.431Z,92.10
2018-12-03T00:58:32.967Z,92.50
2018-12-03T01:01:01.578Z,93.10
2018-12-03T01:03:30.004Z,91.60
2018-12-03T01:05:58.412Z,92.50
2018-12-03T01:08:27.124Z,90.80
2018-12-03T01:10:55.593Z,91.30
2018-12-03T01:13:24.017Z,90.70
2018-12-03T01:15:52.721Z,90.80
2018-12-03T01:18:21.141Z,91.50
2018-12-03T01:20:49.538Z,91.70
2018-12-03T01:23:18.313Z,91.80
2018-12-03T01:25:47.409Z,93.40
2018-12-03T01:28:16.097Z,94.30
2018-12-03T01:30:45.497Z,94.80
2018-12-03T01:33:15.093Z,95.00
2018-12-03T01:35:43.569Z,94.60
2018-12-03T01:38:12.489Z,95.20
2018-12-03T01:40:40.878Z,94.90
2018-12-03T01:43:09.849Z,94.10
2018-12-03T01:45:39.005Z,94.40
2018-12-03T01:48:07.961Z,94.70
2018-12-03T01:50:36.360Z,93.90
2018-12-03T01:53:05.326Z,94.70
2018-12-03T01:55:33.924Z,94.80
2018-12-03T01:58:02.299Z,95.00
2018-12-03T02:00:30.702Z,95.40
2018-12-03T02:02:59.382Z,94.20
2018-12-03T02:05:27.824Z,94.10
2018-12-03T02:07:56.217Z,94.50
2018-12-03T02:10:24.637Z,95.00
2018-12-03T02:12:53.053Z,95.40
2018-12-03T02:15:21.441Z,95.10
2018-12-03T02:17:49.937Z,93.60
2018-12-03T02:20:18.633Z,94.30
2018-12-03T02:22:48.571Z,94.30
2018-12-03T02:25:18.637Z,93.20
2018-12-03T02:27:48.724Z,93.60
2018-12-03T02:30:17.967Z,92.40
2018-12-03T02:32:47.461Z,91.70
2018-12-03T02:35:15.942Z,92.50
2018-12-03T02:37:44.617Z,92.10
2018-12-03T02:40:16.221Z,92.40
2018-12-03T02:42:44.617Z,91.60
2018-12-03T02:45:13.809Z,92.50
2018-12-03T02:47:42.250Z,92.60
2018-12-03T02:50:12.860Z,92.20
2018-12-03T02:52:41.302Z,93.00
2018-12-03T02:55:11.198Z,92.50
2018-12-03T02:57:39.587Z,92.60
2018-12-03T03:00:15.185Z,92.50
2018-12-03T03:02:44.894Z,92.30
2018-12-03T03:05:14.298Z,90.80
2018-12-03T03:07:43.081Z,90.90
2018-12-03T03:10:12.918Z,91.70
2018-12-03T03:12:41.327Z,91.80
2018-12-03T03:15:12.752Z,91.30
2018-12-03T03:17:41.116Z,89.60
2018-12-03T03:20:12.059Z,89.80
2018-12-03T03:22:40.523Z,90.70
2018-12-03T03:25:10.093Z,92.90
2018-12-03T03:27:38.940Z,94.00
2018-12-03T03:30:13.606Z,93.80
2018-12-03T03:32:42.642Z,93.90
2018-12-03T03:35:12.124Z,93.30
2018-12-03T03:37:40.510Z,93.60
2018-12-03T03:40:11.282Z,93.60
2018-12-03T03:42:39.733Z,93.10
2018-12-03T03:45:12.438Z,90.90
2018-12-03T03:47:40.818Z,91.00
2018-12-03T03:50:09.601Z,90.90
2018-12-03T03:52:38.257Z,91.60
2018-12-03T03:55:07.970Z,91.30
2018-12-03T03:57:36.657Z,91.80
2018-12-03T04:00:08.852Z,90.10
2018-12-03T04:02:37.821Z,91.50
2018-12-03T04:05:08.524Z,91.60
2018-12-03T04:07:37.273Z,88.90
2018-12-03T04:10:08.180Z,87.40
2018-12-03T04:12:36.635Z,87.60
2018-12-03T04:15:07.162Z,86.30
2018-12-03T04:17:36.267Z,87.40
2018-12-03T04:20:08.445Z,87.70
2018-12-03T04:22:37.129Z,87.40
2018-12-03T04:25:07.262Z,83.70
2018-12-03T04:27:35.698Z,87.60
2018-12-03T04:30:05.528Z,90.40
2018-12-03T04:32:33.882Z,89.60
2018-12-03T04:35:02.622Z,90.10
2018-12-03T04:37:32.950Z,90.30
2018-12-03T04:40:02.617Z,91.30
2018-12-03T04:42:32.409Z,92.40
2018-12-03T04:45:00.923Z,92.70
2018-12-03T04:47:29.314Z,92.20
2018-12-03T04:49:57.725Z,93.60
2018-12-03T04:52:26.154Z,93.10
2018-12-03T04:54:54.536Z,93.60
2018-12-03T04:57:23.161Z,93.40
2018-12-03T04:59:51.662Z,94.70
2018-12-03T05:02:20.309Z,95.00
2018-12-03T05:04:49.061Z,95.30
2018-12-03T05:07:17.689Z,95.20
2018-12-03T05:09:46.245Z,94.90
2018-12-03T05:12:14.649Z,93.90
2018-12-03T05:14:43.006Z,93.50
2018-12-03T05:17:11.677Z,93.20
2018-12-03T05:19:40.421Z,93.50
2018-12-03T05:22:09.105Z,93.30
2018-12-03T05:24:37.522Z,93.00
2018-12-03T05:27:06.449Z,92.70
2018-12-03T05:29:35.769Z,92.10
2018-12-03T05:32:04.449Z,91.60
2018-12-03T05:34:33.293Z,91.60
2018-12-03T05:37:01.701Z,88.30
2018-12-03T05:39:30.081Z,90.30
2018-12-03T05:41:58.437Z,90.30
2018-12-03T05:44:26.806Z,90.60
2018-12-03T05:46:55.170Z,90.60
2018-12-03T05:49:23.554Z,89.10
2018-12-03T05:51:52.176Z,87.60
2018-12-03T05:54:20.825Z,83.90
2018-12-03T05:56:49.189Z,85.10
2018-12-03T05:59:17.545Z,88.10
2018-12-03T06:01:45.942Z,90.20
2018-12-03T06:04:14.325Z,90.20
2018-12-03T06:06:42.768Z,89.40
2018-12-03T06:09:11.157Z,86.60
2018-12-03T06:11:39.519Z,85.50
2018-12-03T06:14:08.146Z,85.70
2018-12-03T06:16:36.533Z,88.80
2018-12-03T06:19:05.641Z,85.80
2018-12-03T06:21:34.049Z,88.20
2018-12-03T06:24:02.537Z,88.30
2018-12-03T06:26:31.001Z,90.50
2018-12-03T06:28:59.652Z,91.20
2018-12-03T06:31:28.021Z,92.00
2018-12-03T06:33:56.418Z,92.00
2018-12-03T06:36:24.801Z,91.10
2018-12-03T06:38:54.444Z,91.90
2018-12-03T06:41:22.845Z,91.40
2018-12-03T06:43:51.232Z,91.10
2018-12-03T06:46:19.977Z,90.30
2018-12-03T06:48:48.365Z,91.00
2018-12-03T06:51:17.040Z,90.60
2018-12-03T06:53:45.425Z,90.20
2018-12-03T06:56:13.802Z,89.40
2018-12-03T06:58:42.687Z,89.50
2018-12-03T07:01:11.068Z,90.30
2018-12-03T07:03:40.060Z,90.20
2018-12-03T07:06:08.452Z,90.30
2018-12-03T07:08:36.930Z,90.20
2018-12-03T07:11:05.511Z,90.20
2018-12-03T07:13:34.645Z,89.70
2018-12-03T07:16:03.189Z,90.40
2018-12-03T07:18:31.909Z,90.10
2018-12-03T07:21:00.505Z,90.00
2018-12-03T07:23:28.849Z,87.70
2018-12-03T07:25:57.227Z,88.20
2018-12-03T07:28:25.945Z,85.40
2018-12-03T07:30:54.389Z,81.70
2018-12-03T07:33:23.164Z,83.60
2018-12-03T07:35:51.789Z,83.60
2018-12-03T07:38:20.480Z,84.40
2018-12-03T07:40:48.960Z,84.90
2018-12-03T07:43:17.714Z,78.80
2018-12-03T07:45:46.396Z,80.20
2018-12-03T07:48:15.064Z,73.80
2018-12-03T07:50:43.469Z,77.50
2018-12-03T07:53:11.853Z,76.70
2018-12-03T07:55:40.548Z,69.80
2018-12-03T07:58:13.414Z,69.20
2018-12-03T08:00:46.630Z,70.10
2018-12-03T08:03:15.305Z,73.50
2018-12-03T08:05:43.665Z,68.70
2018-12-03T08:08:12.341Z,66.00
2018-12-03T08:10:43.198Z,64.50
2018-12-03T08:13:13.194Z,73.10
2018-12-03T08:15:41.974Z,80.60
2018-12-03T08:18:13.305Z,86.50
2018-12-03T08:20:48.849Z,90.70
2018-12-03T08:23:33.540Z,92.40
2018-12-03T08:26:02.321Z,92.60
2018-12-03T08:28:31.469Z,92.80
2018-12-03T08:31:00.413Z,93.10
2018-12-03T08:33:28.975Z,92.30
2018-12-03T08:35:57.385Z,90.50
2018-12-03T08:38:25.761Z,90.80
2018-12-03T08:40:54.940Z,91.00
2018-12-03T08:43:23.313Z,91.70
2018-12-03T08:45:56.993Z,92.10
2018-12-03T08:48:25.816Z,90.30
2018-12-03T08:50:54.169Z,85.30
2018-12-03T08:53:22.580Z,88.00
2018-12-03T08:55:51.551Z,89.20
2018-12-03T08:58:48.437Z,89.00
2018-12-03T09:03:43.404Z,86.20
2018-12-03T09:06:10.874Z,88.30
2018-12-03T09:08:38.339Z,87.70
2018-12-03T09:11:05.898Z,79.10
2018-12-03T09:13:33.357Z,79.50
2018-12-03T09:16:00.846Z,77.90
2018-12-03T09:18:30.309Z,75.70
2018-12-03T09:20:57.773Z,79.90
2018-12-03T09:23:25.249Z,69.50
2018-12-03T09:25:52.733Z,67.10
2018-12-03T09:28:20.550Z,66.40
2018-12-03T09:30:48.009Z,69.30
2018-12-03T09:33:15.489Z,67.30
2018-12-03T09:35:42.965Z,72.60
2018-12-03T09:38:10.658Z,63.10
2018-12-03T09:40:38.140Z,64.20
2018-12-03T09:43:05.761Z,69.00
2018-12-03T09:45:33.220Z,68.70
2018-12-03T09:48:00.694Z,72.40
2018-12-03T09:50:28.288Z,78.60
2018-12-03T09:52:56.109Z,77.40
2018-12-03T09:55:23.633Z,79.30
2018-12-03T09:57:55.697Z,82.70
2018-12-03T10:00:23.213Z,81.10
2018-12-03T10:02:50.989Z,84.80
2018-12-03T10:05:18.493Z,87.10
2018-12-03T10:07:45.954Z,91.40
2018-12-03T10:10:13.499Z,92.80
2018-12-03T10:12:40.956Z,93.40
2018-12-03T10:15:08.705Z,94.40
2018-12-03T10:17:36.189Z,93.80
2018-12-03T10:20:04.380Z,94.50
2018-12-03T10:22:31.844Z,95.30
2018-12-03T10:25:03.257Z,95.00
2018-12-03T10:27:30.981Z,96.00
2018-12-03T10:29:58.464Z,96.10
2018-12-03T10:32:25.928Z,95.90
2018-12-03T10:34:53.404Z,96.30
2018-12-03T10:37:21.118Z,95.40
2018-12-03T10:39:48.601Z,95.50
2018-12-03T10:42:16.367Z,94.80
2018-12-03T10:44:43.825Z,95.50
2018-12-03T10:47:11.865Z,94.00
2018-12-03T10:49:39.329Z,94.70
2018-12-03T10:52:06.861Z,94.30
2018-12-03T10:54:34.645Z,92.20
2018-12-03T10:57:02.461Z,87.60
2018-12-03T10:59:30.102Z,92.40
2018-12-03T11:01:59.689Z,91.00
2018-12-03T11:04:36.752Z,81.60
2018-12-03T11:07:09.645Z,82.80
2018-12-03T11:09:37.129Z,69.30
2018-12-03T11:12:05.724Z,76.70
2018-12-03T11:14:33.412Z,74.90
2018-12-03T11:17:00.952Z,75.80
2018-12-03T11:19:28.474Z,81.20
2018-12-03T11:21:56.293Z,85.20
2018-12-03T11:24:23.753Z,84.00
2018-12-03T11:26:51.446Z,83.50
2018-12-03T11:29:19.394Z,91.00
2018-12-03T11:31:46.853Z,78.10
2018-12-03T11:34:16.560Z,85.50
2018-12-03T11:36:44.020Z,85.70
2018-12-03T11:39:11.637Z,91.00
2018-12-03T11:41:39.181Z,91.80
2018-12-03T11:44:06.709Z,92.00
2018-12-03T11:46:34.497Z,92.90
2018-12-03T11:49:02.060Z,93.10
2018-12-03T11:51:29.520Z,93.60
2018-12-03T11:53:57.001Z,94.20
2018-12-03T11:56:24.481Z,94.00
2018-12-03T11:58:51.949Z,94.10
2018-12-03T12:01:19.428Z,92.40
2018-12-03T12:03:46.897Z,94.30
2018-12-03T12:06:14.433Z,94.70
2018-12-03T12:08:42.311Z,94.20
2018-12-03T12:11:09.784Z,95.10
2018-12-03T12:13:37.278Z,95.60
2018-12-03T12:16:04.909Z,95.60
2018-12-03T12:18:32.369Z,92.90
2018-12-03T12:20:59.842Z,93.00
2018-12-03T12:23:27.369Z,94.60
2018-12-03T12:25:54.869Z,95.70
2018-12-03T12:28:22.329Z,96.30
2018-12-03T12:30:49.801Z,97.30
2018-12-03T12:33:18.214Z,97.10
2018-12-03T12:35:45.762Z,97.20
2018-12-03T12:38:13.233Z,96.70
2018-12-03T12:40:40.709Z,97.70
2018-12-03T12:43:08.169Z,97.50
2018-12-03T12:45:35.657Z,97.70
2018-12-03T12:48:03.121Z,97.90
2018-12-03T12:50:30.580Z,97.90
2018-12-03T12:52:58.188Z,97.80
2018-12-03T12:55:25.647Z,97.70
2018-12-03T12:57:53.389Z,97.40
2018-12-03T13:00:20.869Z,97.50
2018-12-03T13:02:48.333Z,97.30
2018-12-03T13:05:15.941Z,97.20
2018-12-03T13:07:43.402Z,96.60
2018-12-03T13:10:11.026Z,96.50
2018-12-03T13:12:38.576Z,96.90
2018-12-03T13:15:07.705Z,97.00
2018-12-03T13:17:35.225Z,96.80
2018-12-03T13:20:03.254Z,96.60
2018-12-03T13:22:33.474Z,95.50
2018-12-03T13:25:00.941Z,95.40
2018-12-03T13:27:28.401Z,96.60
2018-12-03T13:29:55.901Z,97.50
2018-12-03T13:32:23.361Z,97.50
2018-12-03T13:34:50.842Z,97.50
2018-12-03T13:37:18.697Z,97.40
2018-12-03T13:39:46.170Z,96.70
2018-12-03T13:42:13.864Z,97.70
2018-12-03T13:44:42.871Z,98.20
2018-12-03T13:47:10.928Z,98.30
2018-12-03T13:49:38.388Z,98.40
2018-12-03T13:52:06.249Z,98.30
2018-12-03T13:54:34.013Z,98.40
2018-12-03T13:57:01.485Z,98.40
2018-12-03T13:59:29.333Z,98.20
2018-12-03T14:01:56.797Z,98.00
2018-12-03T14:04:24.261Z,98.00
2018-12-03T14:06:51.746Z,98.20
2018-12-03T14:09:19.277Z,98.00
2018-12-03T14:11:46.973Z,98.30
2018-12-03T14:14:14.858Z,98.40
2018-12-03T14:16:42.894Z,98.50
2018-12-03T14:19:10.615Z,98.20
2018-12-03T14:21:38.157Z,98.10
2018-12-03T14:24:06.153Z,98.40
2018-12-03T14:26:33.633Z,98.30
2018-12-03T14:29:01.373Z,98.50
2018-12-03T14:31:28.996Z,98.40
2018-12-03T14:33:56.454Z,98.50
2018-12-03T14:36:23.934Z,98.60
2018-12-03T14:38:51.419Z,98.70
2018-12-03T14:41:18.881Z,98.60
2018-12-03T14:43:46.459Z,98.50
2018-12-03T14:46:13.924Z,98.50
2018-12-03T14:48:41.392Z,98.40
2018-12-03T14:51:08.872Z,98.40
2018-12-03T14:53:36.337Z,97.50
2018-12-03T14:56:04.368Z,96.20
2018-12-03T14:58:31.846Z,95.10
2018-12-03T15:00:59.641Z,95.40
2018-12-03T15:03:27.117Z,95.30
2018-12-03T15:05:54.601Z,95.90
2018-12-03T15:08:22.057Z,95.90
2018-12-03T15:10:49.625Z,96.10
2018-12-03T15:13:17.137Z,96.50
2018-12-03T15:15:44.601Z,96.90
2018-12-03T15:18:12.090Z,97.10
2018-12-03T15:20:39.809Z,97.30
2018-12-03T15:23:07.289Z,97.20
2018-12-03T15:25:34.753Z,97.30
2018-12-03T15:28:02.209Z,97.30
2018-12-03T15:30:29.687Z,97.30
2018-12-03T15:32:57.164Z,97.50
2018-12-03T15:35:24.641Z,97.40
2018-12-03T15:37:52.113Z,97.40
2018-12-03T15:40:19.575Z,97.20
2018-12-03T15:42:47.062Z,97.20
2018-12-03T15:45:14.597Z,97.20
2018-12-03T15:47:42.244Z,97.60
2018-12-03T15:50:10.006Z,97.30
2018-12-03T15:52:37.465Z,97.20
2018-12-03T15:55:05.157Z,97.20
2018-12-03T15:57:32.640Z,97.30
2018-12-03T16:00:00.101Z,97.20
2018-12-03T16:02:28.473Z,97.50
2018-12-03T16:04:55.948Z,97.60
2018-12-03T16:07:23.430Z,97.60
2018-12-03T16:09:50.913Z,97.70
2018-12-03T16:12:18.373Z,97.70
2018-12-03T16:14:46.121Z,97.90
2018-12-03T16:17:13.610Z,98.40
2018-12-03T16:19:41.070Z,98.50
2018-12-03T16:22:08.548Z,98.30
2018-12-03T16:24:36.029Z,97.90
2018-12-03T16:27:03.489Z,97.70
2018-12-03T16:29:30.969Z,97.60
2018-12-03T16:31:58.445Z,97.70
2018-12-03T16:34:25.905Z,97.60
2018-12-03T16:36:53.827Z,97.80
2018-12-03T16:39:21.492Z,97.80
2018-12-03T16:41:49.600Z,97.90
2018-12-03T16:44:17.257Z,98.00
2018-12-03T16:46:44.730Z,98.00
2018-12-03T16:49:12.204Z,97.70
2018-12-03T16:51:42.509Z,97.40
2018-12-03T16:54:09.983Z,96.50
2018-12-03T16:56:37.789Z,95.80
2018-12-03T16:59:05.249Z,95.20
2018-12-03T17:01:32.754Z,94.20
2018-12-03T17:04:00.305Z,94.70
2018-12-03T17:06:27.857Z,95.40
2018-12-03T17:08:55.349Z,94.40
2018-12-03T17:11:22.809Z,95.40
2018-12-03T17:13:50.305Z,96.20
2018-12-03T17:16:17.773Z,96.30
2018-12-03T17:18:45.233Z,96.20
2018-12-03T17:21:12.721Z,96.20
2018-12-03T17:23:40.430Z,96.30
2018-12-03T17:26:08.209Z,96.80
2018-12-03T17:28:35.673Z,96.90
2018-12-03T17:31:03.229Z,97.00
2018-12-03T17:33:30.705Z,96.90
2018-12-03T17:35:58.458Z,96.50
2018-12-03T17:38:26.433Z,96.70
2018-12-03T17:40:53.956Z,96.30
2018-12-03T17:43:21.699Z,95.60
2018-12-03T17:45:49.258Z,96.90
2018-12-03T17:48:16.807Z,97.00
2018-12-03T17:50:44.384Z,96.10
2018-12-03T17:53:12.519Z,96.10
2018-12-03T17:55:39.978Z,96.60
2018-12-03T17:58:07.459Z,96.50
2018-12-03T18:00:34.994Z,95.60
2018-12-03T18:03:02.486Z,96.20
2018-12-03T18:05:30.269Z,96.30
2018-12-03T18:07:57.836Z,96.30
2018-12-03T18:10:25.315Z,96.90
2018-12-03T18:12:52.801Z,97.30
2018-12-03T18:15:20.263Z,97.90
2018-12-03T18:17:47.750Z,96.90
2018-12-03T18:20:15.221Z,97.60
2018-12-03T18:22:42.769Z,98.10
2018-12-03T18:25:10.229Z,98.20
2018-12-03T18:27:37.992Z,98.30
2018-12-03T18:30:05.971Z,98.20
2018-12-03T18:32:33.488Z,98.40
2018-12-03T18:35:00.974Z,98.70
2018-12-03T18:37:28.523Z,98.80
2018-12-03T18:39:56.301Z,98.80
2018-12-03T18:42:23.785Z,98.70
2018-12-03T18:44:51.252Z,98.60
2018-12-03T18:47:18.709Z,98.70
2018-12-03T18:49:46.258Z,98.40
2018-12-03T18:52:14.007Z,98.70
2018-12-03T18:54:41.489Z,98.70
2018-12-03T18:57:08.954Z,98.70
2018-12-03T18:59:36.429Z,98.40
2018-12-03T19:02:03.912Z,98.80
2018-12-03T19:04:31.471Z,98.20
2018-12-03T19:06:58.932Z,97.70
2018-12-03T19:09:27.097Z,96.80
2018-12-03T19:11:55.022Z,97.70
2018-12-03T19:14:22.517Z,98.10
2018-12-03T19:16:50.300Z,98.30
2018-12-03T19:19:17.761Z,98.40
2018-12-03T19:21:47.108Z,98.70
2018-12-03T19:24:14.569Z,98.50
2018-12-03T19:26:42.049Z,98.50
2018-12-03T19:29:09.838Z,97.50
2018-12-03T19:31:37.319Z,97.90
2018-12-03T19:34:04.790Z,97.70
2018-12-03T19:36:32.254Z,97.80
2018-12-03T19:38:59.741Z,97.90
2018-12-03T19:41:27.210Z,98.20
2018-12-03T19:43:54.680Z,98.60
2018-12-03T19:46:22.160Z,98.60
2018-12-03T19:48:50.254Z,98.80
2018-12-03T19:51:17.733Z,98.90
2018-12-03T19:53:45.447Z,98.90
2018-12-03T19:56:13.203Z,98.90
2018-12-03T19:58:40.737Z,98.90
2018-12-03T20:01:08.264Z,98.80
2018-12-03T20:03:35.821Z,98.60
2018-12-03T20:06:03.534Z,98.00
2018-12-03T20:08:30.996Z,97.70
2018-12-03T20:10:58.494Z,98.20
2018-12-03T20:13:25.953Z,96.90
2018-12-03T20:15:53.562Z,95.50
2018-12-03T20:18:21.098Z,95.50
2018-12-03T20:20:48.556Z,96.50
2018-12-03T20:23:16.038Z,96.90
2018-12-03T20:25:44.581Z,97.20
2018-12-03T20:28:13.313Z,97.60
2018-12-03T20:30:42.030Z,97.70
2018-12-03T20:33:09.491Z,97.70
2018-12-03T20:35:36.973Z,97.70
2018-12-03T20:38:04.506Z,97.60
2018-12-03T20:40:31.997Z,97.70
2018-12-03T20:42:59.525Z,97.90
2018-12-03T20:45:32.578Z,98.10
2018-12-03T20:48:00.108Z,98.20
2018-12-03T20:50:27.745Z,98.30
2018-12-03T20:52:55.223Z,98.50
2018-12-03T20:55:23.030Z,98.60
2018-12-03T20:57:50.744Z,98.60
2018-12-03T21:00:18.281Z,98.60
2018-12-03T21:02:45.813Z,98.70
2018-12-03T21:05:13.417Z,98.50
2018-12-03T21:07:41.061Z,98.30
2018-12-03T21:10:08.559Z,98.00
2018-12-03T21:12:36.030Z,97.60
2018-12-03T21:15:03.678Z,97.50
2018-12-03T21:17:31.157Z,97.30
2018-12-03T21:19:58.769Z,97.20
2018-12-03T21:22:26.408Z,97.00
2018-12-03T21:24:53.885Z,96.80
2018-12-03T21:27:21.345Z,96.70
2018-12-03T21:29:48.820Z,96.60
2018-12-03T21:32:16.305Z,96.70
2018-12-03T21:34:43.857Z,96.60
2018-12-03T21:37:11.317Z,96.60
2018-12-03T21:39:38.778Z,96.60
2018-12-03T21:42:06.273Z,96.40
2018-12-03T21:44:33.748Z,96.00
2018-12-03T21:47:01.569Z,96.10
2018-12-03T21:49:29.025Z,95.70
2018-12-03T21:51:56.491Z,96.30
2018-12-03T21:54:24.037Z,96.00
2018-12-03T21:56:51.790Z,96.10
2018-12-03T21:59:19.287Z,96.60
2018-12-03T22:01:46.756Z,97.00
2018-12-03T22:04:14.329Z,97.10
2018-12-03T22:06:41.847Z,97.20
2018-12-03T22:09:09.582Z,97.60
2018-12-03T22:11:37.051Z,97.60
2018-12-03T22:14:04.528Z,97.60
2018-12-03T22:16:31.990Z,97.70
2018-12-03T22:18:59.554Z,98.00
2018-12-03T22:21:27.200Z,98.00
2018-12-03T22:23:54.804Z,98.10
2018-12-03T22:26:22.278Z,98.00
2018-12-03T22:28:49.739Z,97.90
2018-12-03T22:31:17.216Z,97.90
2018-12-03T22:33:44.677Z,97.90
2018-12-03T22:36:12.209Z,97.90
2018-12-03T22:38:39.687Z,97.90
2018-12-03T22:41:07.441Z,97.90
2018-12-03T22:43:34.933Z,97.80
2018-12-03T22:46:02.397Z,97.80
2018-12-03T22:48:29.857Z,98.10
2018-12-03T22:50:57.577Z,97.80
2018-12-03T22:53:25.038Z,97.70
2018-12-03T22:55:52.566Z,98.10
2018-12-03T22:58:20.037Z,98.00
2018-12-03T23:00:49.696Z,98.00
2018-12-03T23:03:17.169Z,98.10
2018-12-03T23:05:44.625Z,98.20
2018-12-03T23:08:12.085Z,98.30
2018-12-03T23:10:39.561Z,98.30
2018-12-03T23:13:07.018Z,98.30
2018-12-03T23:15:34.489Z,98.30
2018-12-03T23:18:02.262Z,98.30
2018-12-03T23:20:29.745Z,98.40
2018-12-03T23:22:57.481Z,98.40
2018-12-03T23:25:24.943Z,98.40
2018-12-03T23:27:52.605Z,98.30
2018-12-03T23:30:20.127Z,98.20
2018-12-03T23:32:47.601Z,98.40
2018-12-03T23:35:15.082Z,98.00
2018-12-03T23:37:42.841Z,98.00
2018-12-03T23:40:10.601Z,97.90
2018-12-03T23:42:38.073Z,97.70
2018-12-03T23:45:05.661Z,97.70
2018-12-03T23:47:34.101Z,97.90
2018-12-03T23:50:01.867Z,98.00
2018-12-03T23:52:29.324Z,98.00
2018-12-03T23:54:56.794Z,98.10
2018-12-03T23:57:24.256Z,97.80
2018-12-03T23:59:51.733Z,98.00
